Terminal Aerodrome Forecast
Issued by NWS

Home | Current Version | Previous Version | Text Only | Print | Product List | Glossary On
Versions: 1 2 3 4 5 6 7 8 9 10 11 12 13 14 15 16 17 18 19 20 21 22
000
FTUS43 KDTX 010310 AAB
TAFDET
TAF AMD
KDET 010310Z 0103/0124 10005KT 2SM -SHRA BR OVC004
      TEMPO 0103/0106 4SM BR SCT004 OVC060
     FM010600 12005KT 6SM -SHRA BR OVC060
     FM011100 18008KT 2SM -SHRA BR BKN008 OVC035
     FM011400 20013G20KT P6SM BKN035
     FM011900 23020G30KT P6SM SCT050=

USA.gov is the U.S. government's official web portal to all federal, state and local government web resources and services.